1858 NOT_NAMED (1858060S12079)


IBTrACS version v04r00. Visit IBTrACS website for data access.
Please direct all questions to the IBTrACS Q and A forum

Storm track - Intensity - Wind Radii - Intensity Data - Source Data - All data

Summary Information

Storm ID 1858060S12079
Start Mar 1 06Z
End Mar 7 06Z
ATCF IDs
Track status Best track data.

Storm track plot

Map of storm track

Intensity plots

No Intensity information for this storm


Radial wind information

No radial wind information for this storm


Position and Intensity Table

BASIN ISO_TIME_________ NATURE LAT LON
degrees north degrees east
SI 1858-03-01 06:00:00 NR -12.10 78.80
SI 09:00:00 NR -12.16 78.61
SI 12:00:00 NR -12.22 78.41
SI 15:00:00 NR -12.29 78.20
SI 18:00:00 NR -12.38 77.98
SI 21:00:00 NR -12.49 77.75
SI 1858-03-02 00:00:00 NR -12.63 77.49
SI 03:00:00 NR -12.80 77.21
SI 06:00:00 NR -13.00 76.90
SI 09:00:00 NR -13.24 76.56
SI 12:00:00 NR -13.53 76.19
SI 15:00:00 NR -13.84 75.81
SI 18:00:00 NR -14.18 75.42
SI 21:00:00 NR -14.54 75.04
SI 1858-03-03 00:00:00 NR -14.92 74.67
SI 03:00:00 NR -15.31 74.32
SI 06:00:00 NR -15.70 74.00
SI 09:00:00 NR -16.09 73.71
SI 12:00:00 NR -16.49 73.46
SI 15:00:00 NR -16.90 73.22
SI 18:00:00 NR -17.31 73.02
SI 21:00:00 NR -17.72 72.84
SI 1858-03-04 00:00:00 NR -18.13 72.70
SI 03:00:00 NR -18.52 72.58
SI 06:00:00 NR -18.90 72.50
SI 09:00:00 NR -19.25 72.42
SI 12:00:00 NR -19.59 72.38
SI 15:00:00 NR -19.92 72.37
SI 18:00:00 NR -20.23 72.39
SI 21:00:00 NR -20.54 72.43
SI 1858-03-05 00:00:00 NR -20.83 72.50
SI 03:00:00 NR -21.12 72.59
SI 06:00:00 NR -21.40 72.70
SI 09:00:00 NR -21.71 72.82
SI 12:00:00 NR -22.02 72.96
SI 15:00:00 NR -22.31 73.13
SI 18:00:00 NR -22.59 73.30
SI 21:00:00 NR -22.86 73.48
SI 1858-03-06 00:00:00 NR -23.10 73.66
SI 03:00:00 NR -23.32 73.84
SI 06:00:00 NR -23.50 74.00
SI 09:00:00 NR -23.65 74.14
SI 12:00:00 NR -23.77 74.27
SI 15:00:00 NR -23.87 74.38
SI 18:00:00 NR -23.94 74.48
SI 21:00:00 NR -23.99 74.57
SI 1858-03-07 00:00:00 NR -24.04 74.65
SI 03:00:00 NR -24.07 74.73
SI 06:00:00 NR -24.10 74.80

Source Information

Agency Information
USA
TOKYO
CMA
HKO
NEWDELHI
REUNION WMO-Best-Tracks.txt:Line=163:xxxx858024
BOM
NADI
WELLINGTON
DS824
TD9636
TD9635
NEUMANN
MLC

All available IBTrACS Data

SEASON BASIN SUBBASIN ISO_TIME_________ NATURE LAT LON WMO AGENCY DIST2LAND LANDFALL IFLAG USA SSHS REUNION LAT REUNION LON REUNION TYPE REUNION TNUM STORM SPEED STORM DIR
Year degrees north degrees east km km 1 degrees north degrees east 1 kts degrees
1858 SI MM 1858-03-01 06:00:00 NR -12.10 78.80 reunion 2026 2026 _____O________ -1 -12.10 78.80 99 9.90 4 253
1858 SI MM 09:00:00 NR -12.16 78.61 2040 2040 _____P________ -1 -12.16 78.61 99 4 253
1858 SI MM 12:00:00 NR -12.22 78.41 2042 2042 _____P________ -1 -12.22 78.41 99 4 251
1858 SI MM 15:00:00 NR -12.29 78.20 2056 2056 _____P________ -1 -12.29 78.20 99 4 249
1858 SI MM 18:00:00 NR -12.38 77.98 2070 2070 _____P________ -1 -12.38 77.98 99 5 246
1858 SI MM 21:00:00 NR -12.49 77.75 2086 2086 _____P________ -1 -12.49 77.75 99 5 243
1858 SI MM 1858-03-02 00:00:00 NR -12.63 77.49 2100 2100 _____P________ -1 -12.63 77.49 99 6 240
1858 SI MM 03:00:00 NR -12.80 77.21 2128 2128 _____P________ -1 -12.80 77.21 99 7 237
1858 SI MM 06:00:00 NR -13.00 76.90 reunion 2156 2151 _____O________ -1 -13.00 76.90 99 9.90 8 235
1858 SI MM 09:00:00 NR -13.24 76.56 2151 2098 _____P________ -1 -13.24 76.56 99 9 233
1858 SI MM 12:00:00 NR -13.53 76.19 2098 2045 _____P________ -1 -13.53 76.19 99 9 231
1858 SI MM 15:00:00 NR -13.84 75.81 2045 1988 _____P________ -1 -13.84 75.81 99 10 229
1858 SI MM 18:00:00 NR -14.18 75.42 1988 1945 _____P________ -1 -14.18 75.42 99 10 227
1858 SI MM 21:00:00 NR -14.54 75.04 1935 1889 _____P________ -1 -14.54 75.04 99 10 225
1858 SI MM 1858-03-03 00:00:00 NR -14.92 74.67 1889 1833 _____P________ -1 -14.92 74.67 99 10 222
1858 SI MM 03:00:00 NR -15.31 74.32 1833 1787 _____P________ -1 -15.31 74.32 99 10 219
1858 SI MM 06:00:00 NR -15.70 74.00 reunion 1787 1743 _____O________ -1 -15.70 74.00 99 9.90 10 216
1858 SI MM 09:00:00 NR -16.09 73.71 1743 1709 _____P________ -1 -16.09 73.71 99 10 213
1858 SI MM 12:00:00 NR -16.49 73.46 1709 1666 _____P________ -1 -16.49 73.46 99 9 210
1858 SI MM 15:00:00 NR -16.90 73.22 1666 1634 _____P________ -1 -16.90 73.22 99 9 207
1858 SI MM 18:00:00 NR -17.31 73.02 1634 1613 _____P________ -1 -17.31 73.02 99 9 204
1858 SI MM 21:00:00 NR -17.72 72.84 1603 1583 _____P________ -1 -17.72 72.84 99 9 201
1858 SI MM 1858-03-04 00:00:00 NR -18.13 72.70 1583 1564 _____P________ -1 -18.13 72.70 99 8 197
1858 SI MM 03:00:00 NR -18.52 72.58 1564 1547 _____P________ -1 -18.52 72.58 99 8 193
1858 SI MM 06:00:00 NR -18.90 72.50 reunion 1547 1532 _____O________ -1 -18.90 72.50 99 9.90 7 191
1858 SI MM 09:00:00 NR -19.25 72.42 1530 1527 _____P________ -1 -19.25 72.42 99 7 189
1858 SI MM 12:00:00 NR -19.59 72.38 1527 1524 _____P________ -1 -19.59 72.38 99 7 185
1858 SI MM 15:00:00 NR -19.92 72.37 1524 1522 _____P________ -1 -19.92 72.37 99 6 0
1858 SI MM 18:00:00 NR -20.23 72.39 1522 1521 _____P________ -1 -20.23 72.39 99 6 175
1858 SI MM 21:00:00 NR -20.54 72.43 1521 1520 _____P________ -1 -20.54 72.43 99 6 170
1858 SI MM 1858-03-05 00:00:00 NR -20.83 72.50 1530 1530 _____P________ -1 -20.83 72.50 99 6 166
1858 SI MM 03:00:00 NR -21.12 72.59 1541 1541 _____P________ -1 -21.12 72.59 99 6 162
1858 SI MM 06:00:00 NR -21.40 72.70 reunion 1552 1552 _____O________ -1 -21.40 72.70 99 9.90 6 160
1858 SI MM 09:00:00 NR -21.71 72.82 1564 1564 _____P________ -1 -21.71 72.82 99 7 158
1858 SI MM 12:00:00 NR -22.02 72.96 1586 1586 _____P________ -1 -22.02 72.96 99 7 155
1858 SI MM 15:00:00 NR -22.31 73.13 1599 1599 _____P________ -1 -22.31 73.13 99 7 152
1858 SI MM 18:00:00 NR -22.59 73.30 1623 1623 _____P________ -1 -22.59 73.30 99 6 149
1858 SI MM 21:00:00 NR -22.86 73.48 1647 1647 _____P________ -1 -22.86 73.48 99 6 147
1858 SI MM 1858-03-06 00:00:00 NR -23.10 73.66 1670 1670 _____P________ -1 -23.10 73.66 99 6 144
1858 SI MM 03:00:00 NR -23.32 73.84 1684 1684 _____P________ -1 -23.32 73.84 99 5 142
1858 SI MM 06:00:00 NR -23.50 74.00 reunion 1707 1707 _____O________ -1 -23.50 74.00 99 9.90 4 140
1858 SI MM 09:00:00 NR -23.65 74.14 1721 1721 _____P________ -1 -23.65 74.14 99 4 138
1858 SI MM 12:00:00 NR -23.77 74.27 1743 1743 _____P________ -1 -23.77 74.27 99 3 135
1858 SI MM 15:00:00 NR -23.87 74.38 1755 1755 _____P________ -1 -23.87 74.38 99 3 131
1858 SI MM 18:00:00 NR -23.94 74.48 1765 1765 _____P________ -1 -23.94 74.48 99 2 127
1858 SI MM 21:00:00 NR -23.99 74.57 1777 1777 _____P________ -1 -23.99 74.57 99 2 123
1858 SI MM 1858-03-07 00:00:00 NR -24.04 74.65 1777 1777 _____P________ -1 -24.04 74.65 99 2 118
1858 SI MM 03:00:00 NR -24.07 74.73 1789 1789 _____P________ -1 -24.07 74.73 99 2 114
1858 SI MM 06:00:00 NR -24.10 74.80 reunion 1799 _____O________ -1 -24.10 74.80 99 9.90 1 112